Time;durP1;ratioP1;P1;durP2;ratioP2;P2;SDS_P1;SDS_P2;PMS_P1;PMS_P2;Temp;Humidity;BMP_temperature;BMP_pressure;BME280_temperature;BME280_humidity;BME280_pressure;Samples;Min_cycle;Max_cycle;Signal;HPM_P1;HPM_P2
2024/01/26 00:01:17;;;;;;;4.10;2.50;;;4.30;52.90;;;;;;4995472;28;20229;-80
2024/01/26 00:03:47;;;;;;;3.23;2.60;;;4.30;52.50;;;;;;5004663;28;20214;-80
2024/01/26 00:06:15;;;;;;;3.00;2.40;;;4.30;52.90;;;;;;4996315;28;20690;-80
2024/01/26 00:08:45;;;;;;;2.63;2.10;;;4.20;52.90;;;;;;4994355;28;20984;-80
2024/01/26 00:11:15;;;;;;;3.97;2.60;;;4.30;53.10;;;;;;4999558;28;20222;-81
2024/01/26 00:13:45;;;;;;;2.90;2.13;;;4.20;53.10;;;;;;4999337;28;20230;-79
2024/01/26 00:16:14;;;;;;;3.93;2.50;;;4.30;53.90;;;;;;4980194;28;20297;-81
2024/01/26 00:18:44;;;;;;;4.17;2.50;;;4.30;53.00;;;;;;5002101;28;20712;-81
2024/01/26 00:21:12;;;;;;;2.90;1.90;;;4.30;53.00;;;;;;5007509;28;20227;-80
2024/01/26 00:23:41;;;;;;;4.33;2.13;;;4.30;53.50;;;;;;5000226;28;20233;-80
2024/01/26 00:26:10;;;;;;;3.90;2.10;;;4.40;54.20;;;;;;4999841;28;20246;-80
2024/01/26 00:28:38;;;;;;;3.80;2.00;;;4.30;52.40;;;;;;5001437;28;20610;-81
2024/01/26 00:31:08;;;;;;;3.27;2.20;;;4.30;52.80;;;;;;4998217;28;20222;-81
2024/01/26 00:33:37;;;;;;;2.80;2.00;;;4.40;53.60;;;;;;4981136;28;20234;-82
2024/01/26 00:36:06;;;;;;;3.27;2.10;;;4.40;53.30;;;;;;4971071;28;20226;-81
2024/01/26 00:38:34;;;;;;;3.43;2.27;;;4.40;52.80;;;;;;4985393;28;20226;-82
2024/01/26 00:41:03;;;;;;;2.73;1.90;;;4.40;53.40;;;;;;5001113;28;20309;-82
2024/01/26 00:43:32;;;;;;;2.33;1.90;;;4.40;52.90;;;;;;4993819;28;20654;-81
2024/01/26 00:46:00;;;;;;;3.90;2.00;;;4.30;52.40;;;;;;4998583;28;20225;-81
2024/01/26 00:48:31;;;;;;;3.40;2.00;;;4.30;53.70;;;;;;4997070;28;20229;-81
2024/01/26 00:51:00;;;;;;;2.20;2.00;;;4.20;53.90;;;;;;4989811;28;23336;-83
2024/01/26 00:53:28;;;;;;;2.90;2.17;;;4.20;53.70;;;;;;4987924;28;20385;-81
2024/01/26 00:55:58;;;;;;;3.00;2.13;;;4.20;53.70;;;;;;5000945;28;20709;-81
2024/01/26 00:58:27;;;;;;;2.33;2.10;;;4.30;54.70;;;;;;4987776;28;20225;-81
2024/01/26 01:00:56;;;;;;;4.00;2.27;;;4.30;53.90;;;;;;4995526;28;20230;-81
2024/01/26 01:03:24;;;;;;;3.33;2.37;;;4.20;53.80;;;;;;4999568;28;20240;-81
2024/01/26 01:05:54;;;;;;;2.73;2.23;;;4.20;54.60;;;;;;4983963;28;20245;-81
2024/01/26 01:08:23;;;;;;;2.60;2.20;;;4.30;53.90;;;;;;4992842;28;20223;-81
2024/01/26 01:10:51;;;;;;;4.07;2.40;;;4.20;54.50;;;;;;5009750;28;20697;-81
2024/01/26 01:13:20;;;;;;;2.90;2.10;;;4.20;54.70;;;;;;4969436;28;20317;-81
2024/01/26 01:15:49;;;;;;;3.07;2.20;;;4.20;54.30;;;;;;4991636;28;20230;-81
2024/01/26 01:18:17;;;;;;;3.10;2.20;;;4.20;54.40;;;;;;4999622;28;20396;-82
2024/01/26 01:20:46;;;;;;;2.80;2.10;;;4.10;54.90;;;;;;4993770;28;20229;-81
2024/01/26 01:23:16;;;;;;;3.53;2.40;;;4.10;54.60;;;;;;4993821;28;20222;-82
2024/01/26 01:25:45;;;;;;;3.17;2.20;;;4.10;55.10;;;;;;4986856;28;20222;-81
2024/01/26 01:28:13;;;;;;;4.23;2.03;;;4.20;54.70;;;;;;4996115;28;20231;-80
2024/01/26 01:30:42;;;;;;;3.43;2.57;;;4.10;54.60;;;;;;4985134;28;20245;-80
2024/01/26 01:33:10;;;;;;;5.67;2.33;;;4.20;54.30;;;;;;4995772;28;20379;-81
2024/01/26 01:35:39;;;;;;;2.60;2.17;;;4.20;54.60;;;;;;4984164;28;20218;-82
2024/01/26 01:38:08;;;;;;;3.43;2.40;;;4.30;54.60;;;;;;5000312;28;20230;-81
2024/01/26 01:40:39;;;;;;;3.03;2.20;;;4.30;53.80;;;;;;5011484;28;20237;-82
2024/01/26 01:43:07;;;;;;;3.23;2.60;;;4.20;54.60;;;;;;4976413;28;20233;-81
2024/01/26 01:45:36;;;;;;;2.77;2.30;;;4.20;54.10;;;;;;5003509;28;20229;-83
2024/01/26 01:48:05;;;;;;;2.47;2.27;;;4.10;55.00;;;;;;4992683;28;20222;-84
2024/01/26 01:50:34;;;;;;;2.90;2.10;;;4.20;54.20;;;;;;4983294;28;20284;-82
2024/01/26 01:53:05;;;;;;;6.47;2.20;;;4.20;54.00;;;;;;4998054;28;20284;-81
2024/01/26 01:55:35;;;;;;;2.50;2.10;;;4.20;54.00;;;;;;4996027;28;20719;-82
2024/01/26 01:58:05;;;;;;;2.33;1.90;;;4.20;54.70;;;;;;4991980;28;20242;-81
2024/01/26 02:00:34;;;;;;;2.47;1.80;;;4.10;54.00;;;;;;4983169;28;20224;-83
2024/01/26 02:03:04;;;;;;;2.00;1.60;;;4.10;54.70;;;;;;4996332;28;20226;-82
2024/01/26 02:05:33;;;;;;;2.07;1.67;;;4.10;54.60;;;;;;4996705;28;20230;-81
2024/01/26 02:08:03;;;;;;;1.83;1.67;;;4.00;54.90;;;;;;4992637;28;20226;-80
2024/01/26 02:10:31;;;;;;;1.80;1.70;;;4.10;54.90;;;;;;4997253;28;20285;-81
2024/01/26 02:12:59;;;;;;;1.60;1.47;;;4.10;54.80;;;;;;4993594;28;21656;-81
2024/01/26 02:15:29;;;;;;;3.00;1.60;;;4.20;54.80;;;;;;5010400;28;20215;-81
2024/01/26 02:17:59;;;;;;;2.37;1.80;;;4.20;54.40;;;;;;4994041;28;20666;-80
2024/01/26 02:20:28;;;;;;;1.97;1.67;;;4.20;55.10;;;;;;4982029;28;20265;-81
2024/01/26 02:23:22;;;;;;;2.10;1.50;;;4.20;55.70;;;;;;4998876;28;20230;-80
2024/01/26 02:25:52;;;;;;;1.90;1.70;;;4.20;55.10;;;;;;5009332;28;20304;-79
2024/01/26 02:28:20;;;;;;;1.93;1.67;;;4.30;54.10;;;;;;5001403;28;20237;-80
2024/01/26 02:30:49;;;;;;;4.80;2.00;;;4.30;55.20;;;;;;4971108;28;20238;-82
2024/01/26 02:33:18;;;;;;;2.87;2.00;;;4.40;54.60;;;;;;4982100;28;20230;-82
2024/01/26 02:35:46;;;;;;;3.00;2.20;;;4.30;54.40;;;;;;4981455;28;20230;-81
2024/01/26 02:38:15;;;;;;;2.70;1.77;;;4.30;54.10;;;;;;4998403;28;20242;-82
2024/01/26 02:40:47;;;;;;;2.37;1.97;;;4.20;54.60;;;;;;4983826;28;20313;-82
2024/01/26 02:43:15;;;;;;;2.77;2.30;;;4.20;54.90;;;;;;4984918;28;20230;-82
2024/01/26 02:45:46;;;;;;;1.90;1.70;;;4.20;55.20;;;;;;5004122;28;20697;-81
2024/01/26 02:48:15;;;;;;;1.90;1.70;;;4.20;55.60;;;;;;5004948;28;20226;-82
2024/01/26 02:50:44;;;;;;;1.90;1.70;;;4.20;55.20;;;;;;4995873;28;20215;-81
2024/01/26 02:53:12;;;;;;;2.33;1.93;;;4.20;55.10;;;;;;4995215;28;20961;-82
2024/01/26 02:55:41;;;;;;;2.60;1.80;;;4.30;56.00;;;;;;4995983;28;20305;-81
2024/01/26 02:58:11;;;;;;;1.93;1.73;;;4.20;55.40;;;;;;4998365;28;20230;-82
2024/01/26 03:00:40;;;;;;;3.17;2.00;;;4.20;55.80;;;;;;4977822;28;20762;-81
2024/01/26 03:03:08;;;;;;;2.53;2.00;;;4.30;54.60;;;;;;4982577;28;20242;-81
2024/01/26 03:05:37;;;;;;;2.33;2.03;;;4.30;55.20;;;;;;4998829;28;20285;-81
2024/01/26 03:08:06;;;;;;;2.23;2.00;;;4.20;55.70;;;;;;5004478;28;20218;-82
2024/01/26 03:10:35;;;;;;;2.20;1.93;;;4.20;54.90;;;;;;4999641;28;20309;-81
2024/01/26 03:13:04;;;;;;;3.47;2.00;;;4.20;56.20;;;;;;4996418;28;20280;-82
2024/01/26 03:15:34;;;;;;;2.40;2.20;;;4.20;56.30;;;;;;4999623;28;20227;-81
2024/01/26 03:18:02;;;;;;;2.23;1.93;;;4.30;55.90;;;;;;5002171;28;20241;-81
2024/01/26 03:20:32;;;;;;;2.57;2.07;;;4.20;55.30;;;;;;5004090;28;20310;-82
2024/01/26 03:23:00;;;;;;;3.33;2.40;;;4.30;55.40;;;;;;4987277;28;20328;-82
2024/01/26 03:25:29;;;;;;;2.57;2.17;;;4.20;55.70;;;;;;5004074;28;20222;-84
2024/01/26 03:27:57;;;;;;;3.73;2.30;;;4.30;55.50;;;;;;4995538;28;20249;-81
2024/01/26 03:30:26;;;;;;;3.37;2.40;;;4.20;55.70;;;;;;4988208;28;20229;-81
2024/01/26 03:32:56;;;;;;;2.80;2.13;;;4.30;56.20;;;;;;4992456;28;20226;-80
2024/01/26 03:35:26;;;;;;;2.80;2.30;;;4.20;56.30;;;;;;4981767;28;20306;-81
2024/01/26 03:37:54;;;;;;;3.87;2.50;;;4.20;56.70;;;;;;5002574;28;20240;-79
2024/01/26 03:40:24;;;;;;;2.60;2.40;;;4.30;56.60;;;;;;4997156;28;20242;-80
2024/01/26 03:42:52;;;;;;;3.13;2.53;;;4.30;55.00;;;;;;4999064;28;20230;-80
2024/01/26 03:45:21;;;;;;;3.77;2.60;;;4.40;55.70;;;;;;4997170;28;20242;-81
2024/01/26 03:47:50;;;;;;;2.97;2.30;;;4.30;56.30;;;;;;4983439;28;20253;-81
2024/01/26 03:50:20;;;;;;;2.73;2.47;;;4.10;55.90;;;;;;4993164;28;20300;-80
2024/01/26 03:52:48;;;;;;;4.30;2.57;;;4.10;57.10;;;;;;4981716;28;20264;-80
2024/01/26 03:55:17;;;;;;;2.50;2.30;;;4.20;56.70;;;;;;5002315;28;20253;-81
2024/01/26 03:57:45;;;;;;;3.30;2.50;;;4.30;55.50;;;;;;4981913;28;20233;-80
2024/01/26 04:00:15;;;;;;;2.97;2.67;;;4.20;56.00;;;;;;4981505;28;20230;-79
2024/01/26 04:02:44;;;;;;;5.13;2.80;;;4.20;56.10;;;;;;4986617;28;20318;-79
2024/01/26 04:05:14;;;;;;;2.77;2.47;;;4.20;56.60;;;;;;4989655;28;20306;-80
2024/01/26 04:07:44;;;;;;;2.60;2.40;;;4.20;56.10;;;;;;4995755;28;20222;-80
2024/01/26 04:10:12;;;;;;;2.80;2.43;;;4.10;56.60;;;;;;4985665;28;20222;-80
2024/01/26 04:12:41;;;;;;;3.23;2.50;;;4.20;56.80;;;;;;4986072;28;20231;-79
2024/01/26 04:15:11;;;;;;;2.30;2.10;;;4.30;56.90;;;;;;4999174;28;20253;-80
2024/01/26 04:17:40;;;;;;;3.40;2.60;;;4.10;57.00;;;;;;4995323;28;20633;-77
2024/01/26 04:20:09;;;;;;;3.17;2.60;;;4.10;56.40;;;;;;4998449;28;20357;-79
2024/01/26 04:22:38;;;;;;;4.23;2.30;;;4.10;57.00;;;;;;5000212;28;20334;-79
2024/01/26 04:25:09;;;;;;;4.10;3.40;;;3.90;56.60;;;;;;4998390;28;20229;-81
2024/01/26 04:27:38;;;;;;;4.70;3.50;;;3.80;56.70;;;;;;4980428;28;20230;-81
2024/01/26 04:30:08;;;;;;;3.10;2.40;;;3.90;69.10;;;;;;4991253;28;20223;-81
2024/01/26 04:32:37;;;;;;;3.73;2.10;;;4.00;56.80;;;;;;5005356;28;20249;-81
2024/01/26 04:35:07;;;;;;;2.93;1.93;;;3.90;56.30;;;;;;5013375;28;20246;-81
2024/01/26 04:37:35;;;;;;;2.10;1.90;;;3.90;56.30;;;;;;5001422;28;20222;-80
2024/01/26 04:40:05;;;;;;;2.17;1.70;;;4.00;57.30;;;;;;4996154;28;20230;-82
2024/01/26 04:42:35;;;;;;;3.33;1.90;;;4.10;56.30;;;;;;5000494;28;20237;-79
2024/01/26 04:45:05;;;;;;;3.73;2.17;;;4.10;56.30;;;;;;4982972;28;20222;-80
2024/01/26 04:47:34;;;;;;;2.30;1.77;;;4.20;56.20;;;;;;4997057;28;20235;-80
2024/01/26 04:50:04;;;;;;;3.17;2.07;;;4.10;56.30;;;;;;4998817;28;20223;-80
2024/01/26 04:52:32;;;;;;;2.40;1.90;;;4.00;56.40;;;;;;4990547;28;20234;-81
2024/01/26 04:55:01;;;;;;;1.90;1.70;;;4.00;68.70;;;;;;4995986;28;20241;-81
2024/01/26 04:57:30;;;;;;;2.63;2.00;;;3.90;56.70;;;;;;4988667;28;20223;-80
2024/01/26 05:00:00;;;;;;;2.30;2.10;;;4.10;56.60;;;;;;4989683;28;20305;-80
2024/01/26 05:02:28;;;;;;;2.10;1.87;;;4.10;56.60;;;;;;4986307;28;20268;-80
2024/01/26 05:04:57;;;;;;;2.10;1.90;;;4.00;57.60;;;;;;5004173;28;20313;-80
2024/01/26 05:07:26;;;;;;;2.30;1.87;;;4.10;56.50;;;;;;4984306;28;20392;-80
2024/01/26 05:09:54;;;;;;;2.13;1.70;;;4.20;56.20;;;;;;4977876;28;20222;-80
2024/01/26 05:12:23;;;;;;;2.03;1.70;;;4.10;56.60;;;;;;4978094;28;20572;-81
2024/01/26 05:14:51;;;;;;;2.10;1.90;;;4.20;56.60;;;;;;4984252;28;20231;-80
2024/01/26 05:17:21;;;;;;;1.87;1.67;;;4.20;57.00;;;;;;4982275;28;20234;-80
2024/01/26 05:19:50;;;;;;;2.37;1.80;;;4.10;57.70;;;;;;5000415;28;20225;-80
2024/01/26 05:22:19;;;;;;;1.80;1.70;;;4.10;55.60;;;;;;4993082;28;20223;-81
2024/01/26 05:24:47;;;;;;;1.73;1.60;;;4.10;56.70;;;;;;4983312;28;20368;-82
2024/01/26 05:27:16;;;;;;;2.00;1.60;;;4.00;57.00;;;;;;4998453;28;20436;-81
2024/01/26 05:29:45;;;;;;;2.20;1.70;;;4.10;57.00;;;;;;4996806;28;20593;-80
2024/01/26 05:32:14;;;;;;;2.20;1.67;;;4.10;56.60;;;;;;4975927;28;20260;-82
2024/01/26 05:34:43;;;;;;;1.90;1.70;;;4.10;56.00;;;;;;5002343;28;20294;-83
2024/01/26 05:37:12;;;;;;;1.77;1.67;;;4.10;56.30;;;;;;4995774;28;20256;-82
2024/01/26 05:39:41;;;;;;;3.50;1.83;;;4.10;56.50;;;;;;4991827;28;20255;-82
2024/01/26 05:42:10;;;;;;;2.00;1.57;;;4.00;56.60;;;;;;4998428;28;20249;-83
2024/01/26 05:44:38;;;;;;;4.43;1.80;;;4.00;56.80;;;;;;4992130;28;20391;-82
2024/01/26 05:47:07;;;;;;;3.33;1.93;;;4.10;57.50;;;;;;4996264;28;20283;-81
2024/01/26 05:49:35;;;;;;;3.87;2.00;;;4.10;56.60;;;;;;4984108;28;20477;-81
2024/01/26 05:52:06;;;;;;;2.97;1.80;;;4.10;56.20;;;;;;4992877;28;20222;-81
2024/01/26 05:54:35;;;;;;;4.57;1.97;;;4.00;57.40;;;;;;4971151;28;20226;-82
2024/01/26 05:57:04;;;;;;;2.57;1.90;;;4.10;57.60;;;;;;4983915;28;20222;-81
2024/01/26 05:59:32;;;;;;;4.23;1.70;;;4.10;56.90;;;;;;5005639;28;20254;-86
2024/01/26 06:02:03;;;;;;;2.60;1.80;;;4.10;56.80;;;;;;4993061;28;20238;-82
2024/01/26 06:04:31;;;;;;;4.07;2.40;;;4.20;56.90;;;;;;5000447;28;20233;-82
2024/01/26 06:07:00;;;;;;;2.23;2.03;;;4.10;56.90;;;;;;4991053;28;20273;-82
2024/01/26 06:09:30;;;;;;;2.10;1.90;;;4.10;57.50;;;;;;4984848;28;20661;-83
2024/01/26 06:11:59;;;;;;;5.40;2.10;;;4.10;56.90;;;;;;4994951;28;20229;-81
2024/01/26 06:14:27;;;;;;;3.03;1.73;;;4.10;70.30;;;;;;4992592;28;20285;-82
2024/01/26 06:16:56;;;;;;;1.90;1.67;;;4.10;57.00;;;;;;4995714;28;20570;-80
2024/01/26 06:19:24;;;;;;;1.77;1.67;;;4.00;57.00;;;;;;4998508;28;20297;-83
2024/01/26 06:21:53;;;;;;;2.13;1.57;;;4.00;57.70;;;;;;4982586;28;20309;-83
2024/01/26 06:24:22;;;;;;;2.47;1.30;;;4.00;58.80;;;;;;5001118;28;20242;-88
2024/01/26 06:26:52;;;;;;;2.23;1.43;;;4.00;57.70;;;;;;5008321;28;20655;-85
2024/01/26 06:29:21;;;;;;;2.00;1.40;;;4.00;57.10;;;;;;5000943;28;20238;-88
2024/01/26 06:31:49;;;;;;;2.00;1.40;;;3.90;57.40;;;;;;4995288;28;20267;-82
2024/01/26 06:34:18;;;;;;;1.57;1.10;;;4.00;58.30;;;;;;4991756;28;20227;-80
2024/01/26 06:36:47;;;;;;;1.50;1.30;;;3.90;59.30;;;;;;4988085;28;20254;-87
2024/01/26 06:39:15;;;;;;;2.13;1.40;;;3.90;59.00;;;;;;4997798;28;20234;-86
2024/01/26 06:41:44;;;;;;;2.17;1.67;;;4.00;72.30;;;;;;4996814;28;20233;-90
2024/01/26 06:44:14;;;;;;;3.03;1.60;;;4.10;60.00;;;;;;4996243;28;20797;-88
2024/01/26 06:46:43;;;;;;;5.13;1.57;;;4.10;59.50;;;;;;4986876;28;20367;-86
2024/01/26 06:49:11;;;;;;;3.00;1.47;;;4.10;59.50;;;;;;4993216;28;20250;-86
2024/01/26 06:51:40;;;;;;;2.50;1.40;;;3.90;59.60;;;;;;4991420;28;20614;-85
2024/01/26 06:54:08;;;;;;;2.97;1.30;;;3.90;60.10;;;;;;4999120;28;20249;-84
2024/01/26 06:56:37;;;;;;;2.63;1.40;;;3.90;60.40;;;;;;4998064;28;20280;-85
2024/01/26 06:59:06;;;;;;;2.87;1.80;;;3.90;60.90;;;;;;4992673;28;20215;-81
2024/01/26 07:01:36;;;;;;;1.90;1.40;;;4.00;59.80;;;;;;4997102;28;20760;-79
2024/01/26 07:04:04;;;;;;;2.90;1.63;;;4.10;60.70;;;;;;5000174;28;20233;-80
2024/01/26 07:06:33;;;;;;;7.10;1.60;;;4.00;59.30;;;;;;4981979;28;20305;-81
2024/01/26 07:09:01;;;;;;;7.40;1.50;;;4.10;60.10;;;;;;4992985;28;20314;-83
2024/01/26 07:11:31;;;;;;;2.10;1.40;;;4.20;61.10;;;;;;4987697;28;20233;-74
2024/01/26 07:14:00;;;;;;;2.60;1.53;;;4.20;59.70;;;;;;4991940;28;20235;-74
2024/01/26 07:16:29;;;;;;;3.87;1.70;;;4.10;59.70;;;;;;5000610;28;20632;-75
2024/01/26 07:18:59;;;;;;;3.63;1.67;;;4.20;59.70;;;;;;4977748;28;20689;-76
2024/01/26 07:21:28;;;;;;;8.33;4.50;;;4.30;59.90;;;;;;4995471;28;20333;-78
2024/01/26 07:23:56;;;;;;;16.17;7.90;;;4.30;61.50;;;;;;4996191;28;20301;-76
2024/01/26 07:26:25;;;;;;;2.80;1.90;;;4.30;61.10;;;;;;5001464;28;20300;-75
2024/01/26 07:28:54;;;;;;;2.37;1.70;;;4.20;59.90;;;;;;4996486;28;20701;-77
2024/01/26 07:31:22;;;;;;;2.30;1.70;;;4.30;59.90;;;;;;4982477;28;20222;-74
2024/01/26 07:33:52;;;;;;;3.23;1.60;;;4.40;60.70;;;;;;5002569;28;20225;-75
2024/01/26 07:36:22;;;;;;;3.37;1.67;;;4.30;60.30;;;;;;4993360;28;20255;-76
2024/01/26 07:38:50;;;;;;;3.70;1.70;;;4.30;60.80;;;;;;4983983;28;20215;-76
2024/01/26 07:41:19;;;;;;;2.23;1.70;;;4.20;61.50;;;;;;4999843;28;20230;-75
2024/01/26 07:43:48;;;;;;;2.77;2.00;;;4.20;61.10;;;;;;4995919;28;20226;-75
2024/01/26 07:46:17;;;;;;;2.80;2.00;;;4.20;61.70;;;;;;4985867;28;20237;-75
2024/01/26 07:48:45;;;;;;;5.37;2.37;;;4.20;61.00;;;;;;4995013;28;20236;-76
2024/01/26 07:51:15;;;;;;;3.87;2.30;;;4.30;61.20;;;;;;4995622;28;20256;-76
2024/01/26 07:53:45;;;;;;;3.50;2.60;;;4.20;61.90;;;;;;5000624;28;20230;-76
2024/01/26 07:56:14;;;;;;;3.30;2.60;;;4.20;62.40;;;;;;4993765;28;20342;-76
2024/01/26 07:58:43;;;;;;;5.37;2.90;;;4.40;76.10;;;;;;5000487;28;20951;-75
2024/01/26 08:01:13;;;;;;;4.07;2.70;;;4.50;62.20;;;;;;4979680;28;20314;-74
2024/01/26 08:03:41;;;;;;;5.00;3.70;;;4.40;61.60;;;;;;4993458;28;20240;-75
2024/01/26 08:06:11;;;;;;;8.93;4.43;;;4.50;61.70;;;;;;4998151;28;20480;-75
2024/01/26 08:08:40;;;;;;;4.00;2.70;;;4.50;61.20;;;;;;4997040;28;20233;-76
2024/01/26 08:11:12;;;;;;;3.13;2.67;;;4.50;60.80;;;;;;5001241;28;20299;-75
2024/01/26 08:13:42;;;;;;;5.73;2.93;;;4.50;60.40;;;;;;4988867;28;20226;-76
2024/01/26 08:16:15;;;;;;;5.00;3.07;;;4.40;61.50;;;;;;4979505;28;20268;-74
2024/01/26 08:18:44;;;;;;;6.00;3.13;;;4.50;60.90;;;;;;4992277;28;20579;-75
2024/01/26 08:21:14;;;;;;;4.27;3.10;;;4.60;61.20;;;;;;5000013;28;20314;-75
2024/01/26 08:23:43;;;;;;;5.60;3.80;;;4.60;60.30;;;;;;4996683;28;20725;-76
2024/01/26 08:26:14;;;;;;;6.90;3.23;;;4.70;61.20;;;;;;4998561;28;20791;-76
2024/01/26 08:28:42;;;;;;;4.97;3.43;;;4.80;61.10;;;;;;4995756;28;20210;-75
2024/01/26 08:31:11;;;;;;;3.43;3.00;;;4.80;60.50;;;;;;4979755;28;20585;-75
2024/01/26 08:33:40;;;;;;;4.57;4.00;;;4.80;60.20;;;;;;4977521;28;20225;-75
2024/01/26 08:36:09;;;;;;;4.53;3.60;;;4.80;60.00;;;;;;4987571;28;20235;-75
2024/01/26 08:38:38;;;;;;;7.97;3.43;;;4.70;59.90;;;;;;4980714;28;20609;-76
2024/01/26 08:41:08;;;;;;;5.40;3.80;;;4.80;60.30;;;;;;4982504;28;20702;-75
2024/01/26 08:43:38;;;;;;;4.37;3.47;;;4.70;62.00;;;;;;4989959;28;20730;-74
2024/01/26 08:46:06;;;;;;;5.77;4.73;;;4.80;60.00;;;;;;4998275;28;20894;-75
2024/01/26 08:48:35;;;;;;;4.83;3.63;;;4.80;61.20;;;;;;4999993;28;20296;-75
2024/01/26 08:51:04;;;;;;;4.33;3.60;;;4.90;60.50;;;;;;4981689;28;20234;-75
2024/01/26 08:53:33;;;;;;;19.40;12.23;;;4.80;60.90;;;;;;4989740;28;20289;-74
2024/01/26 08:56:05;;;;;;;8.70;5.77;;;4.70;61.40;;;;;;4981498;28;20698;-74
2024/01/26 08:58:33;;;;;;;7.13;4.80;;;4.90;60.80;;;;;;4982602;28;20219;-74
2024/01/26 09:01:04;;;;;;;7.90;3.83;;;4.90;61.10;;;;;;5015141;28;20297;-76
2024/01/26 09:03:32;;;;;;;6.00;3.87;;;4.90;60.60;;;;;;4982509;28;20238;-75
2024/01/26 09:06:01;;;;;;;6.10;3.40;;;4.90;61.50;;;;;;4974383;28;20677;-75
2024/01/26 09:08:30;;;;;;;4.00;3.50;;;4.90;61.00;;;;;;4972649;28;20231;-75
2024/01/26 09:10:59;;;;;;;5.67;3.80;;;4.80;62.40;;;;;;4983374;28;20276;-75
2024/01/26 09:13:28;;;;;;;5.40;3.97;;;4.70;62.40;;;;;;4996315;28;20253;-75
2024/01/26 09:15:56;;;;;;;4.07;3.20;;;4.80;62.00;;;;;;5008233;28;20233;-75
2024/01/26 09:18:26;;;;;;;6.50;3.70;;;4.80;63.00;;;;;;5000958;28;20604;-75
2024/01/26 09:21:11;;;;;;;5.43;4.30;;;4.70;63.00;;;;;;4994166;28;20229;-75
2024/01/26 09:23:43;;;;;;;7.37;4.10;;;4.80;62.60;;;;;;4981059;28;20277;-75
2024/01/26 09:26:12;;;;;;;4.80;3.90;;;4.80;77.10;;;;;;4994258;28;20223;-75
2024/01/26 09:28:41;;;;;;;5.87;3.97;;;4.90;62.40;;;;;;4997973;28;20716;-76
2024/01/26 09:31:10;;;;;;;4.80;3.70;;;4.80;62.00;;;;;;4985821;28;20880;-77
2024/01/26 09:33:40;;;;;;;5.33;3.77;;;4.90;62.20;;;;;;4984844;28;20755;-76
2024/01/26 09:36:10;;;;;;;5.77;3.77;;;4.80;63.20;;;;;;4996001;28;20264;-75
2024/01/26 09:38:39;;;;;;;4.40;3.57;;;4.70;62.80;;;;;;4995522;28;20235;-76
2024/01/26 09:41:07;;;;;;;7.53;6.27;;;4.80;63.40;;;;;;4996534;28;20297;-74
2024/01/26 09:43:36;;;;;;;4.43;3.47;;;4.70;64.50;;;;;;4979201;28;20812;-74
2024/01/26 09:46:05;;;;;;;5.17;3.37;;;4.70;64.10;;;;;;4989061;28;20226;-74
2024/01/26 09:48:34;;;;;;;4.73;3.37;;;4.80;63.00;;;;;;4982715;28;20219;-73
2024/01/26 09:51:05;;;;;;;5.23;3.30;;;4.80;62.80;;;;;;4987309;28;20255;-75
2024/01/26 09:53:38;;;;;;;6.13;3.27;;;4.80;62.80;;;;;;4984099;28;20227;-74
2024/01/26 09:56:08;;;;;;;4.20;3.10;;;4.90;63.50;;;;;;5000561;28;20345;-76
2024/01/26 09:58:37;;;;;;;5.03;3.10;;;4.90;62.80;;;;;;4979479;28;20305;-77
2024/01/26 10:01:08;;;;;;;690.37;64.30;;;5.00;64.30;;;;;;4979115;28;20306;-76
2024/01/26 10:03:37;;;;;;;84.20;9.00;;;5.10;62.80;;;;;;4979521;28;20238;-76
2024/01/26 10:06:10;;;;;;;7.80;2.93;;;5.20;62.60;;;;;;4981339;28;20873;-73
2024/01/26 10:08:39;;;;;;;3.10;2.37;;;4.90;62.70;;;;;;4995803;28;20229;-80
2024/01/26 10:11:08;;;;;;;4.47;2.97;;;4.90;63.40;;;;;;4977646;28;20253;-79
2024/01/26 10:13:38;;;;;;;4.07;2.70;;;4.90;64.20;;;;;;4980043;28;20304;-80
2024/01/26 10:16:08;;;;;;;5.57;3.10;;;5.00;64.20;;;;;;4984786;28;20305;-79
2024/01/26 10:18:42;;;;;;;13.53;6.20;;;5.10;64.20;;;;;;5000215;28;20237;-80
2024/01/26 10:21:13;;;;;;;4.30;3.27;;;5.10;63.50;;;;;;5001393;28;20316;-78
2024/01/26 10:23:42;;;;;;;5.93;2.83;;;5.20;63.90;;;;;;4995001;28;20400;-78
2024/01/26 10:26:11;;;;;;;1049.97;109.90;;;5.20;64.00;;;;;;5002025;28;20230;-79
2024/01/26 10:28:40;;;;;;;17.10;4.37;;;5.30;64.50;;;;;;4983975;28;20678;-79
2024/01/26 10:31:09;;;;;;;145.67;12.67;;;5.30;65.50;;;;;;5002132;28;20237;-77
2024/01/26 10:33:42;;;;;;;96.53;10.47;;;5.30;63.90;;;;;;5004443;28;20225;-79
2024/01/26 10:36:14;;;;;;;135.13;12.67;;;5.30;62.90;;;;;;4997445;28;20241;-79
2024/01/26 10:38:44;;;;;;;21.53;3.63;;;5.30;65.00;;;;;;4986105;28;20229;-80
2024/01/26 10:41:20;;;;;;;5.90;2.80;;;5.30;65.10;;;;;;4998867;28;20229;-78
2024/01/26 10:43:55;;;;;;;5.53;2.73;;;5.30;65.90;;;;;;4994182;28;20256;-80
2024/01/26 10:46:26;;;;;;;4.20;2.60;;;5.40;65.20;;;;;;5001813;28;20674;-80
2024/01/26 10:48:58;;;;;;;7.00;3.23;;;5.50;66.40;;;;;;4982862;28;20797;-79
2024/01/26 10:51:28;;;;;;;4.13;2.50;;;5.40;66.70;;;;;;5003171;28;20280;-79
2024/01/26 10:53:59;;;;;;;4.37;3.03;;;5.30;65.50;;;;;;4982143;28;20732;-80
2024/01/26 10:56:28;;;;;;;4.67;2.80;;;5.20;65.80;;;;;;4984779;28;20244;-80
2024/01/26 10:58:57;;;;;;;4.33;2.90;;;5.20;66.30;;;;;;4993678;28;20292;-80
2024/01/26 11:01:25;;;;;;;4.77;2.80;;;5.30;66.50;;;;;;4998272;28;20227;-79
2024/01/26 11:03:57;;;;;;;4.63;2.60;;;5.30;66.70;;;;;;4997980;28;20214;-80
2024/01/26 11:06:32;;;;;;;4.93;3.00;;;5.30;66.70;;;;;;4988199;28;20242;-78
2024/01/26 11:09:05;;;;;;;4.53;2.73;;;5.30;66.50;;;;;;4981192;28;20325;-79
2024/01/26 11:11:36;;;;;;;7.07;2.73;;;5.30;66.40;;;;;;5013644;28;20239;-79
2024/01/26 11:14:06;;;;;;;4.83;2.67;;;5.30;66.00;;;;;;4997003;28;20603;-79
2024/01/26 11:16:35;;;;;;;3.53;2.70;;;5.40;66.80;;;;;;4997994;28;20590;-80
2024/01/26 11:19:04;;;;;;;3.03;2.50;;;5.30;66.40;;;;;;5003145;28;20231;-79
2024/01/26 11:21:44;;;;;;;6.40;4.70;;;5.40;66.20;;;;;;4999674;28;20285;-78
2024/01/26 11:24:16;;;;;;;5.03;3.70;;;5.40;67.00;;;;;;4999609;28;20613;-78
2024/01/26 11:26:56;;;;;;;5.77;3.90;;;5.30;66.60;;;;;;4994751;28;20654;-80
2024/01/26 11:29:32;;;;;;;6.03;3.50;;;5.30;67.00;;;;;;4998848;28;20214;-80
2024/01/26 11:32:01;;;;;;;5.27;3.60;;;5.30;68.30;;;;;;4987092;28;20369;-80
2024/01/26 11:34:30;;;;;;;5.10;3.53;;;5.20;68.80;;;;;;4994000;28;20686;-83
2024/01/26 11:37:13;;;;;;;6.60;4.30;;;5.20;68.00;;;;;;4994645;28;20233;-80
2024/01/26 11:39:42;;;;;;;3.97;3.30;;;5.00;67.00;;;;;;5002747;28;20720;-77
2024/01/26 11:42:12;;;;;;;5.53;3.07;;;5.10;67.60;;;;;;4999161;28;20231;-79
2024/01/26 11:44:42;;;;;;;5.83;3.40;;;5.30;69.20;;;;;;4998981;28;20226;-78
2024/01/26 11:47:13;;;;;;;14.80;7.93;;;5.20;69.00;;;;;;5002952;28;20245;-80
2024/01/26 11:49:42;;;;;;;10.13;5.33;;;5.00;69.90;;;;;;5001861;28;20220;-79
2024/01/26 11:52:13;;;;;;;4.90;3.60;;;5.20;68.90;;;;;;5002432;28;20244;-79
2024/01/26 11:54:43;;;;;;;4.83;3.10;;;5.30;68.00;;;;;;4997743;28;20219;-80
2024/01/26 11:57:12;;;;;;;4.43;3.00;;;5.40;67.90;;;;;;4999926;28;20234;-80
2024/01/26 11:59:42;;;;;;;4.53;2.93;;;5.40;67.80;;;;;;4994450;28;20242;-78
2024/01/26 12:02:12;;;;;;;5.87;3.30;;;5.40;67.30;;;;;;4985187;28;20227;-78
2024/01/26 12:04:40;;;;;;;6.37;3.50;;;5.40;68.00;;;;;;4984822;28;20265;-79
2024/01/26 12:07:09;;;;;;;3.83;3.03;;;5.30;68.10;;;;;;4995903;28;20233;-78
2024/01/26 12:09:39;;;;;;;4.63;3.20;;;5.40;68.10;;;;;;5004299;28;20316;-79
2024/01/26 12:12:10;;;;;;;4.83;2.90;;;5.30;68.00;;;;;;4990361;28;20245;-79
2024/01/26 12:14:39;;;;;;;4.53;3.10;;;5.20;69.00;;;;;;4999068;28;20366;-81
2024/01/26 12:17:07;;;;;;;3.50;3.20;;;5.30;69.60;;;;;;5006066;28;20233;-79
2024/01/26 12:19:36;;;;;;;5.43;3.50;;;5.30;70.20;;;;;;4992306;28;20231;-80
2024/01/26 12:22:07;;;;;;;4.50;3.80;;;5.30;69.20;;;;;;4985907;28;20224;-79
2024/01/26 12:24:36;;;;;;;5.40;3.67;;;5.40;69.00;;;;;;4992833;28;20238;-79
2024/01/26 12:27:07;;;;;;;6.63;4.53;;;5.30;69.40;;;;;;4998766;28;20249;-79
2024/01/26 12:29:35;;;;;;;20.93;13.23;;;5.30;69.60;;;;;;5000227;28;20277;-79
2024/01/26 12:32:05;;;;;;;7.70;5.40;;;5.10;71.20;;;;;;4995306;28;20238;-81
2024/01/26 12:34:34;;;;;;;7.40;5.33;;;5.10;72.00;;;;;;4999639;28;20228;-79
2024/01/26 12:37:05;;;;;;;7.20;5.30;;;5.10;71.80;;;;;;4983483;28;20288;-79
2024/01/26 12:39:34;;;;;;;7.27;4.50;;;5.20;71.10;;;;;;4998543;28;20273;-81
2024/01/26 12:42:02;;;;;;;5.80;4.73;;;5.10;71.00;;;;;;4979105;28;20287;-78
2024/01/26 12:44:36;;;;;;;9.23;5.10;;;5.10;71.20;;;;;;4986761;28;20616;-80
2024/01/26 12:47:05;;;;;;;6.30;4.93;;;5.00;71.70;;;;;;4988744;28;20226;-79
2024/01/26 12:49:35;;;;;;;6.43;5.23;;;4.90;71.70;;;;;;4998511;28;20292;-80
2024/01/26 12:52:05;;;;;;;7.97;5.60;;;4.90;73.10;;;;;;4997120;28;20246;-80
2024/01/26 12:54:34;;;;;;;6.47;4.60;;;4.90;72.40;;;;;;4993563;28;20782;-79
2024/01/26 12:57:03;;;;;;;6.37;5.40;;;5.00;72.50;;;;;;4999833;28;20330;-80
2024/01/26 12:59:33;;;;;;;10.83;5.07;;;5.10;72.10;;;;;;4983850;28;20234;-79
2024/01/26 13:02:02;;;;;;;9.67;5.97;;;5.10;73.20;;;;;;4991744;28;20330;-78
2024/01/26 13:04:31;;;;;;;5.63;4.73;;;5.10;71.70;;;;;;4979546;28;20242;-79
2024/01/26 13:07:00;;;;;;;8.63;5.20;;;5.00;71.40;;;;;;4998678;28;20217;-78